Flight Track Log - Related Links

Times and Time Zones

All times are in EDT time to prevent confusion due to time zone crossing. See the LOT393 flight status page for this flight to view local times or setup timezone preferences in your user account.


Time Position Orientation Groundspeed Altitude Reporting Facility
EDT Latitude Longitude Course Direction KTS MPH feet Rate Location/Type
Thu 11:23:15 AM 52.1726 20.9304 287° West  Level Estimated
Thu 11:24:15 AM 52.1997 20.7833 287° West  Level Estimated
Thu 11:25:15 AM 52.2266 20.6360 287° West  Level Estimated
Thu 11:26:15 AM 52.2533 20.4885 286° West  Level Estimated
Thu 11:27:15 AM 52.2799 20.3409 286° West  Level Estimated
Thu 11:28:15 AM 52.3063 20.1931 286° West  Level Estimated
Thu 11:29:15 AM 52.3325 20.0451 286° West  Level Estimated
Thu 11:30:15 AM 52.3585 19.8969 286° West  Level Estimated
Thu 11:31:15 AM 52.3843 19.7486 286° West  Level Estimated
Thu 11:32:15 AM 52.4099 19.6001 286° West  Level Estimated
Thu 11:33:15 AM 52.4353 19.4514 286° West  Level Estimated
Thu 11:34:15 AM 52.4606 19.3025 285° West  Level Estimated
Thu 11:35:15 AM 52.4857 19.1535 285° West  Level Estimated
Thu 11:36:15 AM 52.5106 19.0043 285° West  Level Estimated
Thu 11:37:15 AM 52.5353 18.8549 285° West  Level Estimated
Thu 11:38:15 AM 52.5598 18.7054 285° West  Level Estimated
Thu 11:39:15 AM 52.5841 18.5557 285° West  Level Estimated
Thu 11:40:15 AM 52.6082 18.4058 285° West  Level Estimated
Thu 11:41:15 AM 52.6322 18.2558 285° West  Level Estimated
Thu 11:42:15 AM 52.6559 18.1056 285° West  Level Estimated
Thu 11:43:15 AM 52.6795 17.9553 284° West  Level Estimated
Thu 11:44:15 AM 52.7028 17.8048 284° West  Level Estimated
Thu 11:45:15 AM 52.7260 17.6541 284° West  Level Estimated
Thu 11:46:15 AM 52.7490 17.5032 284° West  Level Estimated
Thu 11:47:15 AM 52.7718 17.3522 284° West  Level Estimated
Thu 11:48:15 AM 52.7944 17.2011 284° West  Level Estimated
Thu 11:49:15 AM 52.8168 17.0498 284° West  Level Estimated
Thu 11:50:15 AM 52.8390 16.8983 284° West  Level Estimated
Thu 11:51:15 AM 52.8611 16.7467 283° West  Level Estimated
Thu 11:52:15 AM 52.8829 16.5949 283° West  Level Estimated
Thu 11:53:15 AM 52.9045 16.4430 283° West  Level Estimated
Thu 11:54:15 AM 52.9260 16.2909 283° West  Level Estimated
Thu 11:55:15 AM 52.9472 16.1387 283° West  Level Estimated
Thu 11:56:15 AM 52.9683 15.9863 283° West  Level Estimated
Thu 11:57:15 AM 52.9892 15.8338 283° West  Level Estimated
Thu 11:58:15 AM 53.0098 15.6811 283° West  Level Estimated
Thu 11:59:15 AM 53.0303 15.5283 282° West  Level Estimated
Thu 12:00:15 PM 53.0506 15.3754 282° West  Level Estimated
Thu 12:01:15 PM 53.0707 15.2223 282° West  Level Estimated
Thu 12:02:15 PM 53.0905 15.0690 282° West  Level Estimated
Thu 12:03:15 PM 53.1102 14.9156 282° West  Level Estimated
Thu 12:04:15 PM 53.1297 14.7621 282° West  Level Estimated
Thu 12:05:15 PM 53.1490 14.6084 282° West  Level Estimated
Thu 12:06:15 PM 53.1681 14.4546 282° West  Level Estimated
Thu 12:07:15 PM 53.1870 14.3007 282° West  Level Estimated
Thu 12:08:15 PM 53.2057 14.1466 281° West  Level Estimated
Thu 12:09:15 PM 53.2242 13.9924 281° West  Level Estimated
Thu 12:10:15 PM 53.2425 13.8381 281° West  Level Estimated
Thu 12:11:15 PM 53.2606 13.6836 281° West  Level Estimated
Thu 12:12:15 PM 53.2785 13.5290 281° West  Level Estimated
Thu 12:13:15 PM 53.2962 13.3743 281° West  Level Estimated
Thu 12:14:15 PM 53.3137 13.2194 281° West  Level Estimated
Thu 12:15:15 PM 53.3310 13.0645 281° West  Level Estimated
Thu 12:16:15 PM 53.3481 12.9093 280° West  Level Estimated
Thu 12:17:15 PM 53.3650 12.7541 280° West  Level Estimated
Thu 12:18:15 PM 53.3817 12.5988 280° West  Level Estimated
Thu 12:19:15 PM 53.3982 12.4433 280° West  Level Estimated
Thu 12:20:15 PM 53.4145 12.2877 280° West  Level Estimated
Thu 12:21:15 PM 53.4306 12.1320 280° West  Level Estimated
Thu 12:22:15 PM 53.4464 11.9761 280° West  Level Estimated
Thu 12:23:15 PM 53.4621 11.8202 280° West  Level Estimated
Thu 12:24:15 PM 53.4776 11.6641 279° West  Level Estimated
Thu 12:25:15 PM 53.4929 11.5080 279° West  Level Estimated
Thu 12:26:15 PM 53.5080 11.3517 279° West  Level Estimated
Thu 12:27:15 PM 53.5228 11.1953 279° West  Level Estimated
Thu 12:28:15 PM 53.5375 11.0388 279° West  Level Estimated
Thu 12:29:15 PM 53.5519 10.8821 279° West  Level Estimated
Thu 12:30:15 PM 53.5662 10.7254 279° West  Level Estimated
Thu 12:31:15 PM 53.5802 10.5686 279° West  Level Estimated
Thu 12:32:15 PM 53.5941 10.4117 278° West  Level Estimated
Thu 12:33:15 PM 53.6077 10.2546 278° West  Level Estimated
Thu 12:34:15 PM 53.6212 10.0975 278° West  Level Estimated
Thu 12:35:15 PM 53.6344 9.9403 98° East  Level Estimated
Thu 12:36:15 PM 53.6212 10.0975 278° West  Level Estimated
Thu 12:37:15 PM 53.6344 9.9403 98° East  Level Estimated
Thu 12:38:15 PM 53.6212 10.0975 278° West  Level Estimated
Thu 12:39:15 PM 53.6344 9.9403 98° East  Level Estimated

Login

Don't have an account? Register now (free) for customized features, flight alerts, and more!